createdAt,value
2018-12-14T00:00:11.579Z,2.63
2018-12-14T00:04:56.011Z,2.54
2018-12-14T00:09:41.995Z,2.64
2018-12-14T00:14:29.413Z,2.66
2018-12-14T00:19:15.672Z,2.66
2018-12-14T00:24:00.873Z,2.62
2018-12-14T00:28:45.090Z,2.69
2018-12-14T00:33:29.684Z,2.83
2018-12-14T00:38:14.795Z,2.85
2018-12-14T00:43:01.058Z,2.48
2018-12-14T00:47:46.220Z,2.23
2018-12-14T00:52:31.460Z,2.41
2018-12-14T00:57:16.606Z,2.57
2018-12-14T01:02:01.878Z,2.94
2018-12-14T01:06:47.261Z,3.13
2018-12-14T01:11:32.964Z,3.03
2018-12-14T01:16:21.795Z,2.86
2018-12-14T01:21:06.901Z,2.13
2018-12-14T01:25:53.124Z,2.19
2018-12-14T01:30:38.864Z,2.47
2018-12-14T01:35:24.999Z,2.53
2018-12-14T01:40:10.919Z,1.95
2018-12-14T01:44:56.084Z,2.24
2018-12-14T01:49:40.336Z,2.21
2018-12-14T01:54:26.564Z,2.25
2018-12-14T01:59:11.773Z,1.75
2018-12-14T02:03:58.224Z,2.00
2018-12-14T02:08:43.483Z,2.08
2018-12-14T02:13:29.876Z,1.43
2018-12-14T02:18:15.141Z,0.65
2018-12-14T02:22:59.495Z,1.38
2018-12-14T02:27:44.692Z,1.81
2018-12-14T02:32:30.117Z,1.72
2018-12-14T02:37:15.217Z,1.33
2018-12-14T02:42:00.514Z,0.72
2018-12-14T02:46:50.152Z,0.94
2018-12-14T02:51:35.563Z,1.62
2018-12-14T02:56:20.684Z,2.01
2018-12-14T03:01:05.971Z,1.55
2018-12-14T03:05:51.192Z,1.68
2018-12-14T03:10:36.475Z,1.80
2018-12-14T03:15:21.797Z,1.59
2018-12-14T03:25:47.985Z,2.45
2018-12-14T03:30:33.203Z,2.36
2018-12-14T03:35:20.303Z,1.32
2018-12-14T03:40:05.766Z,0.98
2018-12-14T03:44:50.122Z,1.44
2018-12-14T03:49:35.369Z,1.96
2018-12-14T03:54:20.779Z,2.13
2018-12-14T03:59:05.099Z,1.38
2018-12-14T04:03:50.356Z,1.45
2018-12-14T04:08:35.544Z,1.37
2018-12-14T04:13:20.933Z,1.19
2018-12-14T04:18:04.999Z,1.83
2018-12-14T04:22:50.153Z,2.34
2018-12-14T04:27:35.208Z,2.78
2018-12-14T04:32:23.286Z,2.13
2018-12-14T04:37:08.826Z,2.22
2018-12-14T04:41:53.147Z,2.87
2018-12-14T04:46:38.696Z,2.12
2018-12-14T04:51:23.988Z,2.34
2018-12-14T04:56:08.428Z,2.75
2018-12-14T05:00:53.722Z,2.44
2018-12-14T05:05:39.103Z,2.39
2018-12-14T05:10:24.249Z,2.99
2018-12-14T05:15:09.346Z,2.55
2018-12-14T05:19:54.458Z,3.44
2018-12-14T05:24:38.641Z,3.49
2018-12-14T05:29:22.790Z,3.18
2018-12-14T05:34:11.547Z,3.22
2018-12-14T05:38:56.730Z,2.59
2018-12-14T05:43:42.085Z,2.66
2018-12-14T05:48:27.213Z,3.38
2018-12-14T05:53:12.490Z,3.33
2018-12-14T05:57:56.859Z,3.15
2018-12-14T06:02:41.518Z,3.68
2018-12-14T06:07:25.767Z,4.14
2018-12-14T06:12:11.318Z,4.61
2018-12-14T06:16:55.877Z,2.76
2018-12-14T06:21:40.157Z,4.15
2018-12-14T06:26:24.479Z,4.51
2018-12-14T06:31:08.797Z,4.72
2018-12-14T06:35:54.266Z,4.81
2018-12-14T06:40:38.426Z,5.08
2018-12-14T06:45:22.829Z,5.26
2018-12-14T06:50:07.049Z,5.25
2018-12-14T06:54:51.604Z,5.33
2018-12-14T06:59:36.125Z,5.54
2018-12-14T07:04:20.576Z,5.73
2018-12-14T07:09:05.989Z,6.03
2018-12-14T07:13:51.781Z,5.20
2018-12-14T07:18:36.093Z,6.07
2018-12-14T07:23:20.472Z,5.25
2018-12-14T07:28:04.661Z,6.32
2018-12-14T07:32:50.113Z,5.07
2018-12-14T07:37:34.309Z,5.58
2018-12-14T07:42:18.702Z,6.32
2018-12-14T07:47:02.904Z,7.07
2018-12-14T07:51:50.088Z,7.33
2018-12-14T07:56:34.365Z,7.33
2018-12-14T08:01:18.848Z,7.37
2018-12-14T08:06:03.253Z,7.72
2018-12-14T08:10:47.434Z,7.92
2018-12-14T08:15:31.816Z,7.06
2018-12-14T08:20:17.262Z,5.82
2018-12-14T08:25:01.807Z,7.96
2018-12-14T08:29:45.916Z,8.65
2018-12-14T08:34:30.037Z,9.03
2018-12-14T08:39:14.351Z,8.99
2018-12-14T08:43:59.773Z,9.71
2018-12-14T08:48:44.238Z,9.96
2018-12-14T08:53:28.675Z,9.96
2018-12-14T08:58:12.974Z,7.52
2018-12-14T09:03:03.022Z,6.94
2018-12-14T09:07:48.044Z,7.17
2018-12-14T09:12:33.437Z,7.72
2018-12-14T09:17:17.718Z,6.66
2018-12-14T09:22:03.128Z,6.98
2018-12-14T09:26:47.358Z,6.24
2018-12-14T09:31:31.688Z,6.41
2018-12-14T09:36:15.849Z,7.35
2018-12-14T09:41:00.067Z,7.17
2018-12-14T09:45:49.950Z,8.81
2018-12-14T09:50:40.115Z,7.63
2018-12-14T09:55:24.381Z,8.21
2018-12-14T10:00:08.572Z,6.90
2018-12-14T10:04:52.978Z,8.03
2018-12-14T10:09:37.344Z,7.82
2018-12-14T10:14:21.454Z,7.85
2018-12-14T10:19:05.735Z,8.70
2018-12-14T10:23:49.957Z,8.29
2018-12-14T10:28:34.503Z,9.33
2018-12-14T10:33:19.062Z,7.96
2018-12-14T10:38:03.352Z,7.58
2018-12-14T10:42:48.650Z,7.57
2018-12-14T10:47:33.048Z,7.24
2018-12-14T10:52:17.332Z,6.78
2018-12-14T10:57:01.651Z,8.41
2018-12-14T11:01:52.328Z,7.41
2018-12-14T11:06:36.825Z,7.98
2018-12-14T11:11:21.164Z,7.28
2018-12-14T11:16:05.294Z,7.68
2018-12-14T11:20:49.367Z,7.08
2018-12-14T11:25:33.588Z,7.43
2018-12-14T11:30:17.963Z,7.93
2018-12-14T11:35:02.600Z,7.03
2018-12-14T11:39:47.744Z,7.40
2018-12-14T11:44:31.939Z,7.80
2018-12-14T11:49:16.215Z,8.05
2018-12-14T11:54:00.664Z,9.12
2018-12-14T11:58:44.897Z,9.58
2018-12-14T12:03:29.099Z,8.84
2018-12-14T12:08:14.480Z,8.85
2018-12-14T12:12:58.708Z,9.37
2018-12-14T12:17:49.157Z,9.31
2018-12-14T12:22:29.336Z,9.62
2018-12-14T12:27:13.598Z,9.32
2018-12-14T12:31:58.222Z,9.39
2018-12-14T12:36:42.655Z,8.81
2018-12-14T12:41:27.033Z,9.01
2018-12-14T12:46:11.608Z,9.05
2018-12-14T12:50:55.766Z,8.48
2018-12-14T12:55:39.932Z,8.59
2018-12-14T13:00:24.173Z,8.44
2018-12-14T13:05:08.389Z,8.06
2018-12-14T13:09:52.804Z,7.55
2018-12-14T13:14:40.106Z,7.70
2018-12-14T13:19:23.585Z,7.46
2018-12-14T13:24:07.853Z,7.36
2018-12-14T13:28:57.476Z,7.62
2018-12-14T13:33:41.796Z,7.63
2018-12-14T13:38:26.069Z,7.42
2018-12-14T13:43:10.532Z,7.58
2018-12-14T13:48:45.708Z,7.19
2018-12-14T13:53:30.913Z,7.20
2018-12-14T13:58:16.192Z,6.95
2018-12-14T14:03:01.847Z,7.10
2018-12-14T14:07:47.082Z,7.10
2018-12-14T14:12:33.462Z,7.22
2018-12-14T14:17:18.952Z,7.09
2018-12-14T14:22:03.298Z,7.03
2018-12-14T14:26:47.410Z,6.95
2018-12-14T14:31:31.676Z,6.81
2018-12-14T14:36:15.872Z,6.90
2018-12-14T14:41:01.406Z,6.80
2018-12-14T14:45:46.452Z,6.77
2018-12-14T14:50:32.033Z,6.40
2018-12-14T14:55:16.600Z,6.74
2018-12-14T15:00:07.828Z,6.69
2018-12-14T15:04:52.552Z,6.57
2018-12-14T15:09:36.933Z,6.70
2018-12-14T15:14:22.434Z,6.44
2018-12-14T15:19:07.652Z,6.74
2018-12-14T15:23:56.555Z,6.77
2018-12-14T15:28:42.319Z,6.78
2018-12-14T15:33:27.729Z,6.57
2018-12-14T15:38:15.118Z,6.62
2018-12-14T15:43:00.320Z,6.60
2018-12-14T15:47:45.517Z,6.91
2018-12-14T15:52:31.612Z,6.59
2018-12-14T15:57:17.151Z,6.85
2018-12-14T16:02:01.982Z,6.59
2018-12-14T16:06:47.701Z,6.81
2018-12-14T16:11:32.407Z,6.77
2018-12-14T16:16:17.883Z,6.67
2018-12-14T16:21:02.066Z,6.70
2018-12-14T16:25:47.045Z,6.51
2018-12-14T16:30:33.124Z,6.63
2018-12-14T16:35:18.292Z,6.50
2018-12-14T16:40:03.816Z,6.71
2018-12-14T16:44:49.095Z,6.79
2018-12-14T16:49:35.389Z,6.74
2018-12-14T16:54:20.825Z,6.68
2018-12-14T16:59:06.294Z,6.62
2018-12-14T17:03:52.732Z,6.52
2018-12-14T17:08:38.185Z,6.33
2018-12-14T17:13:29.620Z,6.75
2018-12-14T17:18:15.046Z,6.64
2018-12-14T17:23:03.441Z,6.72
2018-12-14T17:27:48.699Z,6.81
2018-12-14T17:32:34.234Z,6.57
2018-12-14T17:37:19.337Z,6.53
2018-12-14T17:42:05.611Z,6.39
2018-12-14T17:46:51.186Z,6.83
2018-12-14T17:51:35.816Z,6.60
2018-12-14T17:56:21.253Z,6.82
2018-12-14T18:01:08.616Z,6.60
2018-12-14T18:06:01.413Z,6.42
2018-12-14T18:10:50.075Z,6.80
2018-12-14T18:15:35.360Z,6.59
2018-12-14T18:20:21.838Z,6.75
2018-12-14T18:25:08.201Z,6.89
2018-12-14T18:29:54.517Z,7.02
2018-12-14T18:34:39.743Z,6.80
2018-12-14T18:39:24.723Z,7.11
2018-12-14T18:44:15.932Z,7.21
2018-12-14T18:49:00.302Z,7.49
2018-12-14T18:53:51.434Z,7.43
2018-12-14T18:58:36.944Z,7.39
2018-12-14T19:03:23.118Z,7.31
2018-12-14T19:08:08.149Z,7.19
2018-12-14T19:12:55.556Z,7.37
2018-12-14T19:17:39.817Z,7.20
2018-12-14T19:22:31.278Z,7.16
2018-12-14T19:27:15.878Z,7.25
2018-12-14T19:32:02.687Z,7.29
2018-12-14T19:36:47.406Z,7.27
2018-12-14T19:41:33.846Z,7.03
2018-12-14T19:46:18.138Z,7.06
2018-12-14T19:51:03.461Z,7.28
2018-12-14T19:55:49.819Z,7.29
2018-12-14T20:00:35.361Z,7.60
2018-12-14T20:05:20.516Z,7.22
2018-12-14T20:10:06.563Z,7.38
2018-12-14T20:14:53.218Z,7.91
2018-12-14T20:19:37.479Z,7.87
2018-12-14T20:24:22.810Z,8.14
2018-12-14T20:29:08.788Z,8.19
2018-12-14T20:33:53.752Z,8.22
2018-12-14T20:38:39.046Z,8.01
2018-12-14T20:43:26.157Z,7.90
2018-12-14T20:48:11.476Z,7.96
2018-12-14T20:52:57.824Z,7.91
2018-12-14T20:57:43.283Z,7.91
2018-12-14T21:02:31.144Z,7.68
2018-12-14T21:07:16.402Z,7.42
2018-12-14T21:12:02.954Z,7.32
2018-12-14T21:16:47.424Z,7.46
2018-12-14T21:21:31.787Z,7.55
2018-12-14T21:26:16.833Z,7.52
2018-12-14T21:31:06.221Z,7.38
2018-12-14T21:35:53.384Z,7.49
2018-12-14T21:40:39.683Z,7.62
2018-12-14T21:45:28.628Z,7.61
2018-12-14T21:50:14.550Z,7.76
2018-12-14T21:54:58.870Z,7.69
2018-12-14T22:04:34.283Z,7.43
2018-12-14T22:09:19.466Z,7.55
2018-12-14T22:14:10.682Z,7.81
2018-12-14T22:18:57.538Z,8.14
2018-12-14T22:23:41.949Z,7.91
2018-12-14T22:28:26.953Z,7.80
2018-12-14T22:33:12.349Z,7.59
2018-12-14T22:37:58.304Z,7.44
2018-12-14T22:42:43.733Z,7.84
2018-12-14T22:47:28.127Z,7.93
2018-12-14T22:52:17.441Z,7.97
2018-12-14T22:57:01.577Z,7.62
2018-12-14T23:01:46.024Z,8.19
2018-12-14T23:06:36.914Z,7.92
2018-12-14T23:11:26.025Z,8.20
2018-12-14T23:16:11.401Z,8.06
2018-12-14T23:20:55.927Z,8.07
2018-12-14T23:25:42.327Z,8.01
2018-12-14T23:30:26.789Z,8.12
2018-12-14T23:35:12.662Z,8.05
2018-12-14T23:40:01.338Z,8.22
2018-12-14T23:44:51.363Z,8.22
2018-12-14T23:49:36.698Z,8.25
2018-12-14T23:54:20.773Z,8.37
2018-12-14T23:59:06.596Z,8.21
